Time;durP1;ratioP1;P1;durP2;ratioP2;P2;SDS_P1;SDS_P2;PMS_P1;PMS_P2;Temp;Humidity;BMP_temperature;BMP_pressure;BME280_temperature;BME280_humidity;BME280_pressure;Samples;Min_cycle;Max_cycle;Signal;HPM_P1;HPM_P2
2021/05/09 00:00:09;;;;;;;3.53;2.93;;;;;;;;;;5140662;27;20438;-71
2021/05/09 00:02:36;;;;;;;5.27;3.23;;;;;;;;;;5141037;27;20489;-70
2021/05/09 00:05:04;;;;;;;5.97;2.67;;;;;;;;;;5141180;27;20473;-70
2021/05/09 00:07:31;;;;;;;5.63;2.73;;;;;;;;;;5132296;27;20447;-70
2021/05/09 00:09:59;;;;;;;3.83;3.03;;;;;;;;;;5134237;27;20754;-70
2021/05/09 00:12:28;;;;;;;5.50;2.50;;;;;;;;;;5140729;27;20455;-71
2021/05/09 00:15:01;;;;;;;4.70;2.80;;;;;;;;;;5139294;27;20555;-70
2021/05/09 00:17:28;;;;;;;4.33;3.03;;;;;;;;;;5140601;27;20877;-70
2021/05/09 00:19:55;;;;;;;3.60;2.80;;;;;;;;;;5140881;27;20453;-70
2021/05/09 00:22:22;;;;;;;4.93;2.80;;;;;;;;;;5140456;27;20449;-71
2021/05/09 00:24:54;;;;;;;4.80;3.03;;;;;;;;;;5141151;27;20450;-70
2021/05/09 00:27:24;;;;;;;2.60;2.07;;;;;;;;;;5140779;27;20442;-71
2021/05/09 00:29:56;;;;;;;3.27;2.83;;;;;;;;;;5140587;27;20538;-71
2021/05/09 00:32:26;;;;;;;5.10;3.00;;;;;;;;;;5140005;27;20772;-70
2021/05/09 00:34:53;;;;;;;3.17;2.27;;;;;;;;;;5140523;27;20452;-70
2021/05/09 00:37:21;;;;;;;3.20;2.67;;;;;;;;;;5141248;27;20488;-71
2021/05/09 00:39:54;;;;;;;4.20;2.80;;;;;;;;;;5140460;27;20464;-71
2021/05/09 00:42:34;;;;;;;4.10;2.60;;;;;;;;;;5132834;27;20435;-70
2021/05/09 00:45:05;;;;;;;5.33;3.30;;;;;;;;;;5120080;28;20451;-71
2021/05/09 00:47:33;;;;;;;3.13;2.30;;;;;;;;;;5119662;28;20455;-70
2021/05/09 00:50:01;;;;;;;4.17;2.40;;;;;;;;;;5119630;27;20491;-70
2021/05/09 00:52:31;;;;;;;3.60;2.40;;;;;;;;;;5119668;28;20432;-71
2021/05/09 00:55:01;;;;;;;3.70;2.40;;;;;;;;;;5130883;27;20485;-73
2021/05/09 00:57:29;;;;;;;4.70;2.50;;;;;;;;;;5139357;27;20451;-70
2021/05/09 00:59:59;;;;;;;4.60;3.00;;;;;;;;;;5139950;27;20446;-69
2021/05/09 01:05:32;;;;;;;3.07;1.90;;;;;;;;;;5119237;28;20390;-70
2021/05/09 01:08:01;;;;;;;6.73;2.40;;;;;;;;;;5119733;28;20461;-72
2021/05/09 01:10:28;;;;;;;2.70;1.93;;;;;;;;;;5122694;27;20562;-70
2021/05/09 01:12:56;;;;;;;7.10;2.47;;;;;;;;;;5139598;27;20843;-70
2021/05/09 01:15:26;;;;;;;4.33;2.53;;;;;;;;;;5132969;27;20839;-70
2021/05/09 01:17:55;;;;;;;3.90;2.23;;;;;;;;;;5130876;27;20451;-71
2021/05/09 01:20:36;;;;;;;3.17;2.30;;;;;;;;;;5139611;27;20807;-71
2021/05/09 01:23:05;;;;;;;4.73;2.27;;;;;;;;;;5125206;27;20454;-71
2021/05/09 01:25:34;;;;;;;6.20;2.27;;;;;;;;;;5125229;27;20522;-70
2021/05/09 01:28:03;;;;;;;3.67;1.83;;;;;;;;;;5118985;28;20562;-71
2021/05/09 01:30:32;;;;;;;4.43;2.00;;;;;;;;;;5133849;27;20489;-70
2021/05/09 01:33:00;;;;;;;5.37;1.70;;;;;;;;;;5139181;27;20461;-70
2021/05/09 01:35:29;;;;;;;3.67;1.90;;;;;;;;;;5138883;27;20450;-70
2021/05/09 01:37:59;;;;;;;5.93;2.60;;;;;;;;;;5139355;27;20458;-69
2021/05/09 01:40:28;;;;;;;4.67;1.93;;;;;;;;;;5137850;27;20469;-70
2021/05/09 01:42:55;;;;;;;4.00;1.80;;;;;;;;;;5138836;27;20454;-70
2021/05/09 01:45:23;;;;;;;4.17;2.27;;;;;;;;;;5139169;27;20687;-70
2021/05/09 01:47:53;;;;;;;4.00;2.00;;;;;;;;;;5138725;27;20458;-69
2021/05/09 01:50:21;;;;;;;5.10;2.30;;;;;;;;;;5138524;27;20484;-70
2021/05/09 01:52:49;;;;;;;4.60;1.87;;;;;;;;;;5139135;27;20454;-70
2021/05/09 01:55:24;;;;;;;3.33;1.73;;;;;;;;;;5139299;27;20450;-70
2021/05/09 01:57:51;;;;;;;3.27;1.40;;;;;;;;;;5139368;27;20471;-70
2021/05/09 02:00:24;;;;;;;6.77;2.27;;;;;;;;;;5138558;27;20465;-71
2021/05/09 02:03:06;;;;;;;3.70;2.07;;;;;;;;;;5138834;27;20900;-70
2021/05/09 02:05:45;;;;;;;7.53;2.10;;;;;;;;;;5138442;27;20553;-71
2021/05/09 02:08:13;;;;;;;3.70;1.90;;;;;;;;;;5139058;27;20442;-70
2021/05/09 02:10:43;;;;;;;8.23;2.67;;;;;;;;;;5138531;27;20754;-70
2021/05/09 02:13:10;;;;;;;3.60;2.00;;;;;;;;;;5138592;27;20519;-70
2021/05/09 02:15:37;;;;;;;3.83;1.80;;;;;;;;;;5138484;27;20907;-70
2021/05/09 02:18:05;;;;;;;3.00;1.70;;;;;;;;;;5138279;27;20532;-70
2021/05/09 02:20:32;;;;;;;4.60;1.77;;;;;;;;;;5138944;27;20450;-70
2021/05/09 02:23:00;;;;;;;3.37;1.70;;;;;;;;;;5138135;27;20804;-70
2021/05/09 02:25:27;;;;;;;3.50;1.70;;;;;;;;;;5138587;27;20454;-70
2021/05/09 02:27:55;;;;;;;4.20;1.80;;;;;;;;;;5138403;27;20474;-70
2021/05/09 02:30:23;;;;;;;4.50;2.13;;;;;;;;;;5137535;27;20868;-70
2021/05/09 02:32:50;;;;;;;3.73;1.93;;;;;;;;;;5138085;27;20473;-70
2021/05/09 02:35:17;;;;;;;3.80;2.07;;;;;;;;;;5137965;27;20493;-70
2021/05/09 02:37:45;;;;;;;6.70;1.83;;;;;;;;;;5138638;27;20458;-70
2021/05/09 02:40:15;;;;;;;4.60;1.60;;;;;;;;;;5137570;27;20490;-70
2021/05/09 02:42:44;;;;;;;4.07;1.60;;;;;;;;;;5137742;27;20442;-70
2021/05/09 02:45:13;;;;;;;3.63;1.50;;;;;;;;;;5137959;27;20457;-70
2021/05/09 02:47:40;;;;;;;4.13;2.00;;;;;;;;;;5138576;27;20511;-70
2021/05/09 02:50:09;;;;;;;3.10;1.70;;;;;;;;;;5137877;27;21081;-70
2021/05/09 02:52:36;;;;;;;3.00;1.53;;;;;;;;;;5138185;27;20735;-70
2021/05/09 02:55:04;;;;;;;3.97;1.70;;;;;;;;;;5137104;27;20454;-71
2021/05/09 02:57:31;;;;;;;3.23;1.40;;;;;;;;;;5138329;27;20451;-70
2021/05/09 02:59:59;;;;;;;2.83;1.57;;;;;;;;;;5137933;27;20857;-70
2021/05/09 03:05:31;;;;;;;3.17;1.57;;;;;;;;;;5136849;27;20397;-70
2021/05/09 03:07:58;;;;;;;3.47;1.67;;;;;;;;;;5138007;27;20541;-70
2021/05/09 03:10:25;;;;;;;2.87;1.47;;;;;;;;;;5137543;28;20757;-70
2021/05/09 03:12:53;;;;;;;4.43;1.50;;;;;;;;;;5137951;28;20831;-70
2021/05/09 03:15:20;;;;;;;3.00;1.40;;;;;;;;;;5137422;28;20565;-70
2021/05/09 03:17:47;;;;;;;3.10;1.90;;;;;;;;;;5137448;28;20450;-70
2021/05/09 03:20:15;;;;;;;3.10;1.33;;;;;;;;;;5137665;28;20477;-70
2021/05/09 03:22:43;;;;;;;3.77;1.63;;;;;;;;;;5137627;28;20454;-70
2021/05/09 03:25:12;;;;;;;3.63;1.67;;;;;;;;;;5137732;27;20453;-70
2021/05/09 03:27:40;;;;;;;7.23;1.83;;;;;;;;;;5137726;28;20450;-70
2021/05/09 03:30:08;;;;;;;3.73;1.60;;;;;;;;;;5136945;28;20504;-70
2021/05/09 03:32:35;;;;;;;3.53;1.57;;;;;;;;;;5137211;27;20571;-70
2021/05/09 03:35:03;;;;;;;3.47;1.70;;;;;;;;;;5137524;27;20585;-70
2021/05/09 03:37:31;;;;;;;5.33;1.70;;;;;;;;;;5137254;27;20454;-70
2021/05/09 03:40:02;;;;;;;6.40;1.80;;;;;;;;;;5137587;27;20442;-70
2021/05/09 03:42:29;;;;;;;3.13;1.63;;;;;;;;;;5137442;28;20458;-70
2021/05/09 03:44:57;;;;;;;4.90;1.50;;;;;;;;;;5137622;28;20447;-70
2021/05/09 03:47:26;;;;;;;3.73;1.33;;;;;;;;;;5137305;28;20450;-70
2021/05/09 03:49:54;;;;;;;2.97;1.40;;;;;;;;;;5137111;27;20482;-70
2021/05/09 03:52:22;;;;;;;4.33;1.60;;;;;;;;;;5137886;27;20511;-70
2021/05/09 03:54:50;;;;;;;4.07;1.70;;;;;;;;;;5137162;27;20456;-70
2021/05/09 03:57:19;;;;;;;4.10;1.90;;;;;;;;;;5137548;27;20480;-70
2021/05/09 03:59:47;;;;;;;4.40;1.70;;;;;;;;;;5137658;28;20450;-70
2021/05/09 04:02:14;;;;;;;4.13;2.10;;;;;;;;;;5137221;28;20560;-70
2021/05/09 04:04:42;;;;;;;4.57;1.60;;;;;;;;;;5137198;28;20714;-70
2021/05/09 04:07:09;;;;;;;2.77;1.27;;;;;;;;;;5137145;27;20470;-71
2021/05/09 04:09:37;;;;;;;4.20;1.47;;;;;;;;;;5137492;27;20447;-70
2021/05/09 04:12:05;;;;;;;3.10;1.50;;;;;;;;;;5137886;27;20446;-70
2021/05/09 04:14:34;;;;;;;3.60;2.13;;;;;;;;;;5137345;28;20465;-70
2021/05/09 04:17:01;;;;;;;4.87;1.50;;;;;;;;;;5141039;27;20477;-70
2021/05/09 04:19:29;;;;;;;2.87;1.43;;;;;;;;;;5140895;27;20773;-70
2021/05/09 04:21:57;;;;;;;3.53;1.40;;;;;;;;;;5141298;27;20457;-70
2021/05/09 04:24:24;;;;;;;3.83;1.77;;;;;;;;;;5140606;27;20864;-70
2021/05/09 04:26:51;;;;;;;4.70;1.60;;;;;;;;;;5140897;27;20522;-70
2021/05/09 04:29:19;;;;;;;4.73;1.17;;;;;;;;;;5140710;27;20540;-71
2021/05/09 04:31:48;;;;;;;3.07;1.50;;;;;;;;;;5140985;27;20522;-70
2021/05/09 04:34:15;;;;;;;3.40;1.40;;;;;;;;;;5140404;27;20453;-71
2021/05/09 04:36:43;;;;;;;2.90;1.37;;;;;;;;;;5140747;27;20527;-71
2021/05/09 04:39:11;;;;;;;3.20;1.40;;;;;;;;;;5140257;27;20450;-70
2021/05/09 04:41:39;;;;;;;4.70;1.80;;;;;;;;;;5139717;27;20914;-70
2021/05/09 04:44:07;;;;;;;2.80;1.40;;;;;;;;;;5139800;27;20886;-70
2021/05/09 04:46:35;;;;;;;5.10;1.60;;;;;;;;;;5139723;27;20547;-70
2021/05/09 04:49:04;;;;;;;5.73;1.60;;;;;;;;;;5139886;27;20587;-70
2021/05/09 04:51:50;;;;;;;3.63;1.90;;;;;;;;;;5139909;27;20500;-70
2021/05/09 04:54:27;;;;;;;3.33;1.73;;;;;;;;;;5139048;27;20491;-70
2021/05/09 04:56:55;;;;;;;4.80;1.63;;;;;;;;;;5139952;27;20737;-71
2021/05/09 04:59:23;;;;;;;5.53;2.00;;;;;;;;;;5139493;27;20858;-72
2021/05/09 05:01:52;;;;;;;3.73;1.33;;;;;;;;;;5139631;27;20450;-70
2021/05/09 05:04:21;;;;;;;3.07;1.50;;;;;;;;;;5130635;27;20886;-72
2021/05/09 05:06:49;;;;;;;4.80;1.30;;;;;;;;;;5139565;27;20493;-72
2021/05/09 05:09:19;;;;;;;3.13;1.30;;;;;;;;;;5139870;27;20450;-71
2021/05/09 05:12:04;;;;;;;3.50;1.60;;;;;;;;;;5121067;27;20483;-71
2021/05/09 05:14:34;;;;;;;3.63;1.53;;;;;;;;;;5118957;28;20458;-71
2021/05/09 05:17:11;;;;;;;4.93;1.50;;;;;;;;;;5119194;28;20459;-71
2021/05/09 05:19:40;;;;;;;5.03;1.30;;;;;;;;;;5119268;28;20515;-71
2021/05/09 05:22:09;;;;;;;3.10;1.33;;;;;;;;;;5122441;27;20473;-71
2021/05/09 05:24:37;;;;;;;3.80;1.40;;;;;;;;;;5139467;27;20446;-69
2021/05/09 05:27:05;;;;;;;3.63;1.23;;;;;;;;;;5138976;27;20453;-72
2021/05/09 05:29:36;;;;;;;2.97;1.27;;;;;;;;;;5139514;27;20438;-72
2021/05/09 05:35:07;;;;;;;3.20;1.30;;;;;;;;;;5138437;27;20497;-71
2021/05/09 05:37:43;;;;;;;3.40;1.67;;;;;;;;;;5138863;27;20508;-71
2021/05/09 05:40:17;;;;;;;4.23;1.40;;;;;;;;;;5138898;27;20442;-71
2021/05/09 05:42:47;;;;;;;3.30;1.50;;;;;;;;;;5138811;27;20548;-71
2021/05/09 05:45:35;;;;;;;5.53;1.30;;;;;;;;;;5138613;27;20445;-71
2021/05/09 05:48:15;;;;;;;3.30;1.57;;;;;;;;;;5138960;27;20703;-71
2021/05/09 05:50:43;;;;;;;3.60;1.30;;;;;;;;;;5139262;27;20492;-71
2021/05/09 05:53:11;;;;;;;4.60;1.43;;;;;;;;;;5138747;27;20546;-71
2021/05/09 05:55:40;;;;;;;8.10;1.50;;;;;;;;;;5138752;27;20461;-71
2021/05/09 05:58:11;;;;;;;3.93;1.30;;;;;;;;;;5138228;27;20456;-71
2021/05/09 06:00:41;;;;;;;3.00;1.40;;;;;;;;;;5138895;27;20446;-71
2021/05/09 06:03:09;;;;;;;3.73;1.77;;;;;;;;;;5138268;27;20453;-71
2021/05/09 06:05:37;;;;;;;4.30;1.70;;;;;;;;;;5128746;27;20504;-71
2021/05/09 06:08:06;;;;;;;3.70;1.17;;;;;;;;;;5118458;28;20462;-70
2021/05/09 06:10:35;;;;;;;4.10;1.70;;;;;;;;;;5117557;28;20495;-69
2021/05/09 06:13:03;;;;;;;3.40;1.40;;;;;;;;;;5127539;27;20475;-70
2021/05/09 06:15:30;;;;;;;3.47;1.50;;;;;;;;;;5120300;27;20515;-71
2021/05/09 06:17:58;;;;;;;3.70;1.03;;;;;;;;;;5138179;27;20454;-73
2021/05/09 06:20:28;;;;;;;4.83;1.60;;;;;;;;;;5138354;27;20486;-71
2021/05/09 06:23:03;;;;;;;3.57;1.47;;;;;;;;;;5137586;27;20457;-71
2021/05/09 06:25:51;;;;;;;2.90;1.33;;;;;;;;;;5138675;27;20448;-71
2021/05/09 06:28:23;;;;;;;3.57;1.53;;;;;;;;;;5131943;27;20472;-71
2021/05/09 06:30:50;;;;;;;4.30;1.47;;;;;;;;;;5136194;27;20548;-71
2021/05/09 06:33:18;;;;;;;2.87;1.17;;;;;;;;;;5137301;27;20469;-71
2021/05/09 06:35:45;;;;;;;3.00;1.20;;;;;;;;;;5136593;27;20917;-71
2021/05/09 06:38:12;;;;;;;3.40;1.50;;;;;;;;;;5135693;27;20477;-71
2021/05/09 06:40:41;;;;;;;2.77;1.23;;;;;;;;;;5135696;27;20435;-71
2021/05/09 06:43:11;;;;;;;4.20;1.40;;;;;;;;;;5135256;27;20462;-71
2021/05/09 06:45:39;;;;;;;5.03;1.57;;;;;;;;;;5116972;28;20528;-71
2021/05/09 06:48:07;;;;;;;3.30;1.73;;;;;;;;;;5136904;27;20843;-71
2021/05/09 06:50:39;;;;;;;3.50;1.40;;;;;;;;;;5137574;27;20561;-71
2021/05/09 06:53:08;;;;;;;3.13;1.30;;;;;;;;;;5137032;27;20446;-71
2021/05/09 06:55:39;;;;;;;6.33;1.50;;;;;;;;;;5128352;27;20455;-71
2021/05/09 06:58:09;;;;;;;3.50;1.30;;;;;;;;;;5137444;27;20451;-72
2021/05/09 07:00:36;;;;;;;4.40;1.63;;;;;;;;;;5135422;27;20807;-71
2021/05/09 07:03:05;;;;;;;4.40;1.70;;;;;;;;;;5137679;27;20477;-71
2021/05/09 07:05:42;;;;;;;3.90;1.33;;;;;;;;;;5137498;27;20545;-71
2021/05/09 07:08:12;;;;;;;3.77;1.50;;;;;;;;;;5136927;27;20457;-72
2021/05/09 07:10:40;;;;;;;3.97;1.47;;;;;;;;;;5136777;27;20486;-72
2021/05/09 07:13:08;;;;;;;3.30;1.33;;;;;;;;;;5136961;27;20519;-70
2021/05/09 07:15:37;;;;;;;3.53;1.30;;;;;;;;;;5136650;27;20449;-71
2021/05/09 07:18:09;;;;;;;7.73;1.50;;;;;;;;;;5136911;28;20446;-70
2021/05/09 07:20:43;;;;;;;5.17;1.97;;;;;;;;;;5123056;28;20455;-71
2021/05/09 07:23:16;;;;;;;2.90;1.20;;;;;;;;;;5115977;28;20519;-70
2021/05/09 07:25:43;;;;;;;3.13;1.17;;;;;;;;;;5117154;28;20851;-72
2021/05/09 07:28:11;;;;;;;4.43;1.20;;;;;;;;;;5136496;28;20450;-72
2021/05/09 07:30:39;;;;;;;3.50;1.43;;;;;;;;;;5136295;28;20487;-71
2021/05/09 07:33:08;;;;;;;3.73;1.60;;;;;;;;;;5136869;28;20473;-71
2021/05/09 07:35:37;;;;;;;3.60;1.30;;;;;;;;;;5136720;27;20450;-71
2021/05/09 07:38:07;;;;;;;3.20;1.53;;;;;;;;;;5135877;27;20497;-70
2021/05/09 07:40:35;;;;;;;7.13;1.57;;;;;;;;;;5136619;27;20465;-71
2021/05/09 07:43:02;;;;;;;4.90;1.70;;;;;;;;;;5135194;28;20514;-71
2021/05/09 07:45:30;;;;;;;3.47;1.50;;;;;;;;;;5137452;28;20457;-71
2021/05/09 07:47:58;;;;;;;3.13;1.33;;;;;;;;;;5136853;27;20783;-72
2021/05/09 07:50:28;;;;;;;3.43;1.40;;;;;;;;;;5136700;27;20789;-72
2021/05/09 07:52:59;;;;;;;4.40;1.93;;;;;;;;;;5140159;27;20929;-71
2021/05/09 07:55:27;;;;;;;4.73;1.43;;;;;;;;;;5139739;27;20446;-72
2021/05/09 07:57:55;;;;;;;3.00;1.30;;;;;;;;;;5140603;27;21189;-71
2021/05/09 08:00:23;;;;;;;3.03;1.43;;;;;;;;;;5140988;27;20448;-72
2021/05/09 08:03:14;;;;;;;3.80;1.53;;;;;;;;;;5139399;27;20952;-71
2021/05/09 08:05:45;;;;;;;4.40;2.23;;;;;;;;;;5126916;27;20545;-71
2021/05/09 08:08:16;;;;;;;3.23;1.40;;;;;;;;;;5136937;27;20450;-71
2021/05/09 08:10:45;;;;;;;3.90;1.67;;;;;;;;;;5138710;27;20482;-72
2021/05/09 08:13:20;;;;;;;3.40;1.30;;;;;;;;;;5137406;27;21181;-71
2021/05/09 08:15:47;;;;;;;3.40;1.47;;;;;;;;;;5139002;27;21047;-71
2021/05/09 08:18:19;;;;;;;4.00;1.30;;;;;;;;;;5123123;27;20499;-71
2021/05/09 08:20:55;;;;;;;3.70;1.40;;;;;;;;;;5128908;27;20458;-71
2021/05/09 08:23:26;;;;;;;3.43;1.37;;;;;;;;;;5140347;27;20442;-71
2021/05/09 08:26:00;;;;;;;5.40;1.90;;;;;;;;;;5139516;27;20811;-71
2021/05/09 08:31:26;;;;;;;3.80;1.67;;;;;;;;;;5130866;27;20490;-71
2021/05/09 08:33:53;;;;;;;5.83;1.33;;;;;;;;;;5134825;27;20461;-71
2021/05/09 08:36:25;;;;;;;4.13;1.33;;;;;;;;;;5153979;27;20448;-71
2021/05/09 08:38:57;;;;;;;4.00;1.77;;;;;;;;;;5155035;27;20905;-71
2021/05/09 08:41:29;;;;;;;4.37;1.60;;;;;;;;;;5142801;27;20441;-71
2021/05/09 08:43:58;;;;;;;4.63;1.73;;;;;;;;;;5157075;27;20483;-71
2021/05/09 08:46:27;;;;;;;4.50;1.67;;;;;;;;;;5157762;27;20445;-71
2021/05/09 08:48:56;;;;;;;4.17;1.47;;;;;;;;;;5157378;27;20452;-70
2021/05/09 08:51:27;;;;;;;3.50;1.37;;;;;;;;;;5157962;27;20484;-70
2021/05/09 08:53:55;;;;;;;6.33;2.10;;;;;;;;;;5157338;27;20452;-70
2021/05/09 08:56:28;;;;;;;4.40;1.30;;;;;;;;;;5157248;27;20752;-71
2021/05/09 08:58:57;;;;;;;2.93;1.60;;;;;;;;;;5156631;27;20441;-70
2021/05/09 09:01:29;;;;;;;3.80;2.00;;;;;;;;;;5156077;27;20739;-71
2021/05/09 09:03:57;;;;;;;5.03;1.67;;;;;;;;;;5157074;27;20449;-71
2021/05/09 09:06:49;;;;;;;3.20;1.47;;;;;;;;;;5150752;27;20457;-71
2021/05/09 09:09:20;;;;;;;4.47;1.53;;;;;;;;;;5148040;27;20454;-70
2021/05/09 09:11:52;;;;;;;3.23;1.40;;;;;;;;;;5141157;27;20613;-70
2021/05/09 09:14:25;;;;;;;4.30;1.40;;;;;;;;;;5139027;27;20465;-70
2021/05/09 09:17:07;;;;;;;3.07;1.40;;;;;;;;;;5153367;27;20481;-70
2021/05/09 09:19:35;;;;;;;3.73;1.70;;;;;;;;;;5137621;27;20769;-70
2021/05/09 09:22:03;;;;;;;3.87;1.60;;;;;;;;;;5149028;27;20453;-70
2021/05/09 09:24:31;;;;;;;3.67;1.60;;;;;;;;;;5136223;27;20446;-71
2021/05/09 09:26:58;;;;;;;4.17;2.73;;;;;;;;;;5144676;27;20531;-71
2021/05/09 09:29:33;;;;;;;4.90;1.20;;;;;;;;;;5150618;27;20448;-71
2021/05/09 09:32:03;;;;;;;5.47;1.60;;;;;;;;;;5156723;27;20516;-71
2021/05/09 09:34:38;;;;;;;3.10;1.50;;;;;;;;;;5156607;27;20744;-71
2021/05/09 09:37:06;;;;;;;2.87;1.40;;;;;;;;;;5153083;27;20468;-72
2021/05/09 09:39:46;;;;;;;3.57;1.60;;;;;;;;;;5143624;27;20506;-72
2021/05/09 09:42:35;;;;;;;4.70;2.27;;;;;;;;;;5125058;27;20857;-71
2021/05/09 09:45:15;;;;;;;3.80;1.50;;;;;;;;;;5135750;27;20450;-71
2021/05/09 09:47:52;;;;;;;6.43;1.57;;;;;;;;;;5141150;27;20445;-72
2021/05/09 09:50:39;;;;;;;4.00;1.40;;;;;;;;;;5155207;27;20464;-71
2021/05/09 09:53:28;;;;;;;5.60;1.67;;;;;;;;;;5133976;27;20450;-71
2021/05/09 09:56:06;;;;;;;2.70;1.10;;;;;;;;;;5114737;28;20785;-71
2021/05/09 09:58:47;;;;;;;3.13;1.50;;;;;;;;;;5117815;27;20443;-71
2021/05/09 10:01:16;;;;;;;4.70;2.93;;;;;;;;;;5117553;27;20466;-72
2021/05/09 10:03:44;;;;;;;5.17;1.30;;;;;;;;;;5117054;27;20451;-70
2021/05/09 10:06:12;;;;;;;5.53;1.67;;;;;;;;;;5128151;27;20865;-72
2021/05/09 10:08:41;;;;;;;5.27;1.20;;;;;;;;;;5131597;27;20520;-72
2021/05/09 10:11:09;;;;;;;4.50;1.27;;;;;;;;;;5128269;27;20478;-72
2021/05/09 10:13:36;;;;;;;3.10;1.10;;;;;;;;;;5129801;27;20449;-70
2021/05/09 10:16:04;;;;;;;3.57;1.30;;;;;;;;;;5121082;27;20493;-71
2021/05/09 10:18:33;;;;;;;3.47;1.20;;;;;;;;;;5115629;27;20450;-71
2021/05/09 10:21:01;;;;;;;3.93;1.50;;;;;;;;;;5128426;27;20462;-71
2021/05/09 10:23:28;;;;;;;3.70;1.40;;;;;;;;;;5131387;27;20607;-71
2021/05/09 10:26:01;;;;;;;4.00;1.17;;;;;;;;;;5128339;27;20462;-71
2021/05/09 10:28:29;;;;;;;4.47;1.70;;;;;;;;;;5127904;27;20455;-71
2021/05/09 10:30:57;;;;;;;2.87;1.07;;;;;;;;;;5116381;27;20550;-71
2021/05/09 10:33:45;;;;;;;4.30;1.10;;;;;;;;;;5120172;27;20507;-70
2021/05/09 10:36:28;;;;;;;3.93;1.23;;;;;;;;;;5135086;27;20899;-70
2021/05/09 10:39:15;;;;;;;3.77;1.43;;;;;;;;;;5118823;27;20446;-71
2021/05/09 10:42:02;;;;;;;4.43;1.60;;;;;;;;;;5121739;27;20515;-70
2021/05/09 10:44:45;;;;;;;5.60;1.47;;;;;;;;;;5136763;27;20901;-70
2021/05/09 10:47:16;;;;;;;3.60;1.50;;;;;;;;;;5137824;27;20465;-70
2021/05/09 10:50:02;;;;;;;6.37;2.00;;;;;;;;;;5137284;27;20454;-71
2021/05/09 10:52:42;;;;;;;8.03;1.70;;;;;;;;;;5136587;27;20486;-70
2021/05/09 10:55:24;;;;;;;3.80;1.23;;;;;;;;;;5137506;27;20460;-70
2021/05/09 10:57:55;;;;;;;6.73;1.67;;;;;;;;;;5127729;27;20451;-71
2021/05/09 11:00:25;;;;;;;5.00;1.87;;;;;;;;;;5132893;27;20462;-70
2021/05/09 11:02:53;;;;;;;3.70;1.40;;;;;;;;;;5128314;27;20435;-71
2021/05/09 11:05:21;;;;;;;5.03;1.43;;;;;;;;;;5115891;28;20497;-71
2021/05/09 11:07:48;;;;;;;3.53;1.20;;;;;;;;;;5115323;28;20485;-71
2021/05/09 11:10:35;;;;;;;4.63;1.43;;;;;;;;;;5116290;27;20524;-71
2021/05/09 11:13:12;;;;;;;6.33;1.10;;;;;;;;;;5115370;28;20523;-71
2021/05/09 11:16:19;;;;;;;4.90;1.50;;;;;;;;;;5111534;27;20532;-70
2021/05/09 11:19:07;;;;;;;3.33;1.20;;;;;;;;;;5133898;27;20468;-71
2021/05/09 11:21:45;;;;;;;3.20;1.00;;;;;;;;;;5130518;27;20462;-71
2021/05/09 11:24:14;;;;;;;7.30;1.17;;;;;;;;;;5117855;28;20481;-71
2021/05/09 11:26:45;;;;;;;4.40;1.20;;;;;;;;;;5137578;27;20476;-71
2021/05/09 11:29:14;;;;;;;3.97;1.00;;;;;;;;;;5129815;27;20458;-70
2021/05/09 11:31:46;;;;;;;4.13;1.00;;;;;;;;;;5140070;27;20776;-70
2021/05/09 11:34:15;;;;;;;4.13;1.30;;;;;;;;;;5141209;27;20446;-70
2021/05/09 11:36:46;;;;;;;3.70;1.37;;;;;;;;;;5139468;27;20450;-72
2021/05/09 11:39:23;;;;;;;3.33;1.10;;;;;;;;;;5141335;27;20489;-71
2021/05/09 11:41:52;;;;;;;3.43;1.30;;;;;;;;;;5140487;27;20469;-71
2021/05/09 11:44:20;;;;;;;3.57;1.40;;;;;;;;;;5120898;27;20456;-71
2021/05/09 11:46:50;;;;;;;4.53;2.07;;;;;;;;;;5126904;27;20472;-72
2021/05/09 11:49:18;;;;;;;3.70;1.10;;;;;;;;;;5140091;27;20450;-71
2021/05/09 11:51:49;;;;;;;4.83;0.90;;;;;;;;;;5140093;27;20492;-70
2021/05/09 11:54:17;;;;;;;3.17;1.10;;;;;;;;;;5139063;27;20450;-70
2021/05/09 11:56:58;;;;;;;3.53;1.10;;;;;;;;;;5140020;27;20787;-70
2021/05/09 11:59:33;;;;;;;5.03;1.70;;;;;;;;;;5138823;27;20539;-70
2021/05/09 12:02:05;;;;;;;5.43;1.37;;;;;;;;;;5138984;27;20540;-70
2021/05/09 12:04:37;;;;;;;3.83;1.20;;;;;;;;;;5138857;27;20518;-70
2021/05/09 12:07:05;;;;;;;6.73;1.40;;;;;;;;;;5139876;27;21148;-70
2021/05/09 12:09:34;;;;;;;3.17;1.30;;;;;;;;;;5140684;27;20454;-70
2021/05/09 12:12:02;;;;;;;3.30;1.10;;;;;;;;;;5139868;27;20537;-70
2021/05/09 12:14:30;;;;;;;3.33;1.17;;;;;;;;;;5140864;27;20464;-70
2021/05/09 12:16:58;;;;;;;3.80;1.00;;;;;;;;;;5141417;27;20522;-70
2021/05/09 12:19:31;;;;;;;3.73;1.10;;;;;;;;;;5140953;27;21055;-70
2021/05/09 12:21:58;;;;;;;3.50;1.17;;;;;;;;;;5140064;27;20488;-70
2021/05/09 12:24:26;;;;;;;3.60;1.10;;;;;;;;;;5139829;27;20489;-71
2021/05/09 12:27:02;;;;;;;4.30;0.93;;;;;;;;;;5140902;27;20458;-72
2021/05/09 12:29:30;;;;;;;3.27;1.00;;;;;;;;;;5141527;27;20542;-71
2021/05/09 12:32:12;;;;;;;3.20;1.00;;;;;;;;;;5139395;27;20485;-71
2021/05/09 12:34:56;;;;;;;3.73;1.10;;;;;;;;;;5139905;27;20449;-71
2021/05/09 12:37:23;;;;;;;4.50;1.43;;;;;;;;;;5137937;27;20858;-71
2021/05/09 12:39:53;;;;;;;5.93;1.20;;;;;;;;;;5140801;27;20510;-71
2021/05/09 12:42:25;;;;;;;3.23;1.13;;;;;;;;;;5141104;27;20457;-71
2021/05/09 12:45:07;;;;;;;4.60;1.10;;;;;;;;;;5139641;27;20438;-71
2021/05/09 12:47:35;;;;;;;2.90;0.97;;;;;;;;;;5139370;27;20759;-71
2021/05/09 12:50:03;;;;;;;3.07;0.87;;;;;;;;;;5138840;27;20726;-71
2021/05/09 12:52:45;;;;;;;3.30;1.07;;;;;;;;;;5138780;27;20720;-71
2021/05/09 12:55:23;;;;;;;4.63;1.20;;;;;;;;;;5136783;27;20462;-72
2021/05/09 12:58:05;;;;;;;2.90;0.80;;;;;;;;;;5137537;27;20449;-71
2021/05/09 13:00:33;;;;;;;3.63;1.20;;;;;;;;;;5123741;27;20570;-71
2021/05/09 13:03:08;;;;;;;3.00;0.87;;;;;;;;;;5136563;27;20450;-71
2021/05/09 13:05:41;;;;;;;4.27;1.00;;;;;;;;;;5138023;27;20468;-71
2021/05/09 13:08:10;;;;;;;4.10;1.03;;;;;;;;;;5137087;27;20511;-71
2021/05/09 13:10:39;;;;;;;4.53;1.63;;;;;;;;;;5139345;27;20460;-70
2021/05/09 13:13:09;;;;;;;5.37;1.17;;;;;;;;;;5138732;27;20537;-71
2021/05/09 13:15:40;;;;;;;4.57;1.10;;;;;;;;;;5138339;27;20478;-71
2021/05/09 13:18:11;;;;;;;3.10;0.77;;;;;;;;;;5138293;27;20821;-70
2021/05/09 13:20:44;;;;;;;3.73;1.10;;;;;;;;;;5130954;27;20538;-70
2021/05/09 13:23:13;;;;;;;3.33;0.83;;;;;;;;;;5149393;27;20460;-70
2021/05/09 13:25:40;;;;;;;3.00;0.83;;;;;;;;;;5158515;27;20441;-70
2021/05/09 13:28:11;;;;;;;3.20;0.83;;;;;;;;;;5145147;27;20461;-71
2021/05/09 13:30:39;;;;;;;3.07;1.30;;;;;;;;;;5136478;27;20461;-71
2021/05/09 13:33:07;;;;;;;4.80;1.23;;;;;;;;;;5118019;27;20478;-71
2021/05/09 13:35:34;;;;;;;3.47;1.20;;;;;;;;;;5134754;27;20484;-70
2021/05/09 13:38:03;;;;;;;3.93;1.07;;;;;;;;;;5137275;27;20469;-70
2021/05/09 13:40:40;;;;;;;2.90;0.90;;;;;;;;;;5132531;27;20503;-72
2021/05/09 13:43:18;;;;;;;3.97;1.20;;;;;;;;;;5132334;27;20460;-70
2021/05/09 13:45:50;;;;;;;3.27;1.00;;;;;;;;;;5127048;27;20450;-72
2021/05/09 13:48:20;;;;;;;4.13;1.27;;;;;;;;;;5131824;27;20442;-72
2021/05/09 13:50:50;;;;;;;5.10;1.30;;;;;;;;;;5137485;27;20462;-71
2021/05/09 13:53:27;;;;;;;3.47;1.20;;;;;;;;;;5120094;27;20531;-71
2021/05/09 13:55:57;;;;;;;6.80;1.23;;;;;;;;;;5129912;27;20445;-71
2021/05/09 13:58:27;;;;;;;5.83;1.20;;;;;;;;;;5137097;27;20450;-71
2021/05/09 14:00:56;;;;;;;4.40;1.17;;;;;;;;;;5133815;27;20469;-71
2021/05/09 14:03:25;;;;;;;4.00;1.43;;;;;;;;;;5137867;27;20453;-70
2021/05/09 14:05:54;;;;;;;3.77;1.30;;;;;;;;;;5138126;27;20457;-70
2021/05/09 14:08:25;;;;;;;3.23;1.20;;;;;;;;;;5137665;27;20450;-71
2021/05/09 14:10:54;;;;;;;3.40;1.00;;;;;;;;;;5135311;27;20542;-71
2021/05/09 14:13:37;;;;;;;3.10;0.90;;;;;;;;;;5135806;27;20846;-71
2021/05/09 14:16:07;;;;;;;2.80;0.90;;;;;;;;;;5130874;27;20527;-72
2021/05/09 14:18:43;;;;;;;4.73;1.53;;;;;;;;;;5119122;27;20452;-70
2021/05/09 14:21:12;;;;;;;4.40;1.17;;;;;;;;;;5121762;27;20457;-70
2021/05/09 14:23:45;;;;;;;3.30;1.33;;;;;;;;;;5126384;27;20549;-71
2021/05/09 14:26:15;;;;;;;3.93;1.27;;;;;;;;;;5116654;27;20494;-71
2021/05/09 14:28:49;;;;;;;3.10;1.10;;;;;;;;;;5116466;28;20674;-72
2021/05/09 14:31:16;;;;;;;3.43;1.50;;;;;;;;;;5108628;28;20521;-71
2021/05/09 14:33:45;;;;;;;3.30;1.30;;;;;;;;;;5117709;27;20545;-71
2021/05/09 14:36:13;;;;;;;6.53;2.50;;;;;;;;;;5122177;27;20891;-72
2021/05/09 14:38:41;;;;;;;9.93;1.33;;;;;;;;;;5130459;27;20447;-71
2021/05/09 14:41:11;;;;;;;5.40;1.30;;;;;;;;;;5124641;27;20567;-72
2021/05/09 14:43:41;;;;;;;3.10;1.07;;;;;;;;;;5131150;27;20443;-71
2021/05/09 14:46:14;;;;;;;5.20;1.30;;;;;;;;;;5114536;28;20838;-71
2021/05/09 14:48:47;;;;;;;4.13;1.30;;;;;;;;;;5122854;27;20453;-72
2021/05/09 14:51:39;;;;;;;4.07;1.30;;;;;;;;;;5135180;27;20999;-72
2021/05/09 14:54:12;;;;;;;4.90;1.40;;;;;;;;;;5135613;27;20822;-71
2021/05/09 14:56:45;;;;;;;3.40;1.13;;;;;;;;;;5135525;27;20454;-71
2021/05/09 14:59:18;;;;;;;9.33;0.90;;;;;;;;;;5134189;27;20453;-70
2021/05/09 15:01:45;;;;;;;5.63;1.97;;;;;;;;;;5136686;27;20461;-70
2021/05/09 15:04:13;;;;;;;3.43;1.47;;;;;;;;;;5136770;27;20470;-70
2021/05/09 15:06:42;;;;;;;3.67;1.53;;;;;;;;;;5136224;27;20538;-70
2021/05/09 15:09:13;;;;;;;3.87;1.30;;;;;;;;;;5136449;27;20450;-70
2021/05/09 15:11:41;;;;;;;4.57;1.53;;;;;;;;;;5137518;27;20920;-72
2021/05/09 15:14:08;;;;;;;4.60;1.30;;;;;;;;;;5122187;27;20446;-71
2021/05/09 15:16:36;;;;;;;5.30;1.50;;;;;;;;;;5137477;27;20481;-72